Time;durP1;ratioP1;P1;durP2;ratioP2;P2;SDS_P1;SDS_P2;PMS_P1;PMS_P2;Temp;Humidity;BMP_temperature;BMP_pressure;BME280_temperature;BME280_humidity;BME280_pressure;Samples;Min_cycle;Max_cycle;Signal;HPM_P1;HPM_P2
2021/11/13 00:01:09;;;;;;;16.77;10.90;;;8.10;99.90;;;;;;5037760;28;20463;-81
2021/11/13 00:03:38;;;;;;;16.03;9.83;;;8.10;99.90;;;;;;5052298;28;20463;-81
2021/11/13 00:06:08;;;;;;;13.50;9.50;;;8.10;99.90;;;;;;5044688;28;20479;-80
2021/11/13 00:08:36;;;;;;;10.20;7.83;;;8.20;99.90;;;;;;5039946;28;20463;-80
2021/11/13 00:11:05;;;;;;;11.80;8.30;;;8.30;99.90;;;;;;5047270;28;20935;-79
2021/11/13 00:13:34;;;;;;;11.70;5.30;;;8.40;99.90;;;;;;5037948;28;20530;-80
2021/11/13 00:16:05;;;;;;;9.03;6.17;;;8.50;99.90;;;;;;5035382;28;20466;-79
2021/11/13 00:18:35;;;;;;;10.90;6.57;;;8.70;99.90;;;;;;5040724;28;20478;-79
2021/11/13 00:21:04;;;;;;;11.80;7.50;;;8.70;99.90;;;;;;5044099;28;20904;-80
2021/11/13 00:23:34;;;;;;;10.20;7.10;;;8.70;99.90;;;;;;5042427;28;20495;-80
2021/11/13 00:26:03;;;;;;;10.63;6.93;;;8.70;99.90;;;;;;5040234;28;20513;-81
2021/11/13 00:28:32;;;;;;;14.03;7.07;;;8.70;99.90;;;;;;5040658;28;20457;-79
2021/11/13 00:34:43;;;;;;;13.30;6.87;;;8.60;99.90;;;;;;5003761;28;20493;-82
2021/11/13 00:37:12;;;;;;;10.37;7.77;;;8.60;99.90;;;;;;4990092;28;20460;-79
2021/11/13 00:39:42;;;;;;;15.03;8.77;;;8.50;99.90;;;;;;5041864;28;20539;-79
2021/11/13 00:42:14;;;;;;;11.30;8.53;;;8.50;99.90;;;;;;5047625;28;20503;-79
2021/11/13 00:44:43;;;;;;;12.70;8.50;;;8.50;99.90;;;;;;5037411;28;20483;-81
2021/11/13 00:47:12;;;;;;;10.83;8.50;;;8.40;99.90;;;;;;5044902;28;20462;-81
2021/11/13 00:49:40;;;;;;;11.60;8.50;;;8.40;99.90;;;;;;5041897;28;20457;-80
2021/11/13 00:52:09;;;;;;;10.37;7.33;;;8.40;99.90;;;;;;5046515;28;20590;-80
2021/11/13 00:54:38;;;;;;;12.73;7.87;;;8.40;99.90;;;;;;5044659;28;20547;-80
2021/11/13 00:57:08;;;;;;;11.20;8.50;;;8.40;99.90;;;;;;5029232;28;20544;-79
2021/11/13 00:59:38;;;;;;;11.43;8.67;;;8.50;99.90;;;;;;5044120;28;20466;-81
2021/11/13 01:02:07;;;;;;;16.20;9.10;;;8.30;99.90;;;;;;5026700;28;20969;-81
2021/11/13 01:04:36;;;;;;;11.27;7.83;;;8.30;99.90;;;;;;5037801;28;20445;-79
2021/11/13 01:07:05;;;;;;;12.83;8.73;;;8.30;99.90;;;;;;5045501;28;20563;-81
2021/11/13 01:09:34;;;;;;;9.80;8.80;;;8.30;99.90;;;;;;5033615;28;20460;-79
2021/11/13 01:12:02;;;;;;;13.10;8.50;;;8.20;99.90;;;;;;5047939;28;20650;-78
2021/11/13 01:14:39;;;;;;;14.27;9.33;;;8.30;99.90;;;;;;5047333;28;20457;-80
2021/11/13 01:17:09;;;;;;;10.90;8.27;;;8.30;99.90;;;;;;5028261;28;20821;-80
2021/11/13 01:19:38;;;;;;;13.90;8.93;;;8.30;99.90;;;;;;5042212;28;20491;-79
2021/11/13 01:22:06;;;;;;;14.00;8.53;;;8.40;99.90;;;;;;5044820;28;20539;-80
2021/11/13 01:24:35;;;;;;;13.03;8.33;;;8.30;99.90;;;;;;5045399;28;20459;-80
2021/11/13 01:27:04;;;;;;;11.60;7.30;;;8.30;99.90;;;;;;5044022;28;20457;-80
2021/11/13 01:29:34;;;;;;;12.53;7.60;;;8.30;99.90;;;;;;5045619;28;20530;-80
2021/11/13 01:32:03;;;;;;;7.93;6.67;;;8.30;99.90;;;;;;5036224;28;21069;-80
2021/11/13 01:34:31;;;;;;;9.60;7.70;;;8.20;99.90;;;;;;5040553;28;20454;-81
2021/11/13 01:36:59;;;;;;;13.93;7.27;;;8.20;99.90;;;;;;5040618;28;20881;-80
2021/11/13 01:39:28;;;;;;;13.80;8.13;;;8.20;99.90;;;;;;5044254;28;20457;-81
2021/11/13 01:41:59;;;;;;;10.10;7.73;;;8.20;99.90;;;;;;5033875;28;20455;-80
2021/11/13 01:44:27;;;;;;;9.50;7.10;;;8.20;99.90;;;;;;5039357;28;20446;-79
2021/11/13 01:46:57;;;;;;;11.60;8.63;;;8.20;99.90;;;;;;5039519;28;20493;-79
2021/11/13 01:49:25;;;;;;;13.00;8.83;;;8.10;99.90;;;;;;5047117;28;20452;-78
2021/11/13 01:51:54;;;;;;;10.47;7.67;;;7.90;99.90;;;;;;5048583;28;20874;-80
2021/11/13 01:54:23;;;;;;;11.20;8.77;;;8.10;99.90;;;;;;5039473;28;20492;-80
2021/11/13 01:56:52;;;;;;;16.40;9.40;;;7.80;99.90;;;;;;5034204;28;20488;-79
2021/11/13 01:59:21;;;;;;;13.00;9.57;;;7.90;99.90;;;;;;5046273;28;20816;-79
2021/11/13 02:01:50;;;;;;;12.60;8.87;;;7.80;99.90;;;;;;5034209;28;20463;-81
2021/11/13 02:04:20;;;;;;;12.17;9.07;;;7.80;99.90;;;;;;5035425;28;20917;-82
2021/11/13 02:06:48;;;;;;;11.73;8.33;;;7.80;99.90;;;;;;5042125;28;20469;-79
2021/11/13 02:09:16;;;;;;;16.00;9.07;;;7.90;99.90;;;;;;5047307;28;20468;-80
2021/11/13 02:11:44;;;;;;;12.30;8.93;;;7.80;99.90;;;;;;5041236;28;20488;-79
2021/11/13 02:14:12;;;;;;;11.80;9.77;;;7.80;99.90;;;;;;5037749;28;20522;-81
2021/11/13 02:16:41;;;;;;;12.97;9.13;;;7.70;99.90;;;;;;5035024;28;20522;-79
2021/11/13 02:19:09;;;;;;;10.50;8.53;;;7.80;99.90;;;;;;5040919;28;20967;-79
2021/11/13 02:21:39;;;;;;;14.30;11.10;;;7.60;99.90;;;;;;5040793;28;20859;-82
2021/11/13 02:24:07;;;;;;;11.80;9.20;;;7.60;99.90;;;;;;5032051;28;20458;-78
2021/11/13 02:26:35;;;;;;;16.00;10.07;;;7.50;99.90;;;;;;5032001;28;20455;-80
2021/11/13 02:29:05;;;;;;;14.37;9.07;;;7.30;99.90;;;;;;5039627;28;20555;-81
2021/11/13 02:31:37;;;;;;;16.47;10.00;;;7.30;99.90;;;;;;5033918;28;21081;-80
2021/11/13 02:34:07;;;;;;;15.83;9.30;;;7.30;99.90;;;;;;5053150;28;20444;-79
2021/11/13 02:36:36;;;;;;;12.17;8.67;;;7.40;99.90;;;;;;5041481;28;20445;-81
2021/11/13 02:39:09;;;;;;;14.77;9.20;;;7.30;99.90;;;;;;5047066;28;20453;-79
2021/11/13 02:41:38;;;;;;;12.40;9.10;;;7.30;99.90;;;;;;5046330;28;20509;-79
2021/11/13 02:44:07;;;;;;;13.77;9.40;;;7.40;99.90;;;;;;5039042;28;20485;-81
2021/11/13 02:46:36;;;;;;;12.70;9.60;;;7.40;99.90;;;;;;5043064;28;20428;-80
2021/11/13 02:49:06;;;;;;;12.70;9.90;;;7.40;99.90;;;;;;5042341;28;20438;-79
2021/11/13 02:51:34;;;;;;;12.67;9.77;;;7.50;99.90;;;;;;5038494;28;20480;-78
2021/11/13 02:54:03;;;;;;;12.20;9.47;;;7.60;99.90;;;;;;5047370;28;20538;-78
2021/11/13 02:56:35;;;;;;;16.43;10.33;;;7.50;99.90;;;;;;5052006;28;20820;-79
2021/11/13 02:59:04;;;;;;;12.43;9.07;;;7.50;99.90;;;;;;5051481;28;20864;-79
2021/11/13 03:01:32;;;;;;;13.60;8.90;;;7.50;99.90;;;;;;5032048;28;20480;-81
2021/11/13 03:04:00;;;;;;;17.13;9.73;;;7.50;99.90;;;;;;5041351;28;20451;-78
2021/11/13 03:06:29;;;;;;;12.30;9.37;;;7.70;99.90;;;;;;5047007;28;20885;-79
2021/11/13 03:08:57;;;;;;;17.50;8.50;;;7.50;99.90;;;;;;5038648;28;20449;-78
2021/11/13 03:11:25;;;;;;;13.70;10.00;;;7.50;99.90;;;;;;5041289;28;21076;-78
2021/11/13 03:13:55;;;;;;;13.13;9.63;;;7.30;99.90;;;;;;5042294;28;20472;-80
2021/11/13 03:16:23;;;;;;;11.77;9.57;;;7.20;99.90;;;;;;5046788;28;20990;-79
2021/11/13 03:18:52;;;;;;;10.30;8.20;;;7.10;99.90;;;;;;5042403;28;20455;-79
2021/11/13 03:21:20;;;;;;;15.87;10.27;;;7.20;99.90;;;;;;5043812;28;20531;-80
2021/11/13 03:23:49;;;;;;;13.67;9.57;;;7.20;99.90;;;;;;5041533;28;20546;-80
2021/11/13 03:26:20;;;;;;;12.53;9.53;;;7.20;99.90;;;;;;5049354;28;20813;-79
2021/11/13 03:28:52;;;;;;;17.47;11.20;;;7.20;99.90;;;;;;5044811;28;20451;-80
2021/11/13 03:31:23;;;;;;;12.40;8.90;;;7.00;99.90;;;;;;5027789;28;20500;-82
2021/11/13 03:33:52;;;;;;;10.40;8.20;;;6.90;99.90;;;;;;5039542;28;20486;-80
2021/11/13 03:36:22;;;;;;;14.30;10.00;;;7.00;99.90;;;;;;5028537;28;21158;-80
2021/11/13 03:38:52;;;;;;;17.13;10.67;;;7.20;99.90;;;;;;5040041;28;20439;-78
2021/11/13 03:41:21;;;;;;;15.03;9.67;;;7.10;99.90;;;;;;5042273;28;20468;-78
2021/11/13 03:43:50;;;;;;;13.97;9.57;;;7.20;99.90;;;;;;5049245;28;20954;-78
2021/11/13 03:46:19;;;;;;;14.70;10.13;;;7.10;99.90;;;;;;5030930;28;20452;-81
2021/11/13 03:48:51;;;;;;;14.20;10.83;;;7.20;99.90;;;;;;5043727;28;21045;-80
2021/11/13 03:51:21;;;;;;;14.60;8.97;;;7.20;99.90;;;;;;5038941;28;20893;-79
2021/11/13 03:53:50;;;;;;;10.30;8.77;;;7.20;99.90;;;;;;5038629;28;20504;-79
2021/11/13 03:56:19;;;;;;;10.57;7.73;;;7.20;99.90;;;;;;5039107;28;20459;-82
2021/11/13 03:58:47;;;;;;;9.20;7.57;;;7.10;99.90;;;;;;5040834;28;20566;-78
2021/11/13 04:01:16;;;;;;;10.60;7.50;;;7.20;99.90;;;;;;5040193;28;21048;-78
2021/11/13 04:03:44;;;;;;;9.20;7.93;;;7.30;99.90;;;;;;5045153;28;20530;-81
2021/11/13 04:06:14;;;;;;;11.47;8.73;;;7.40;99.90;;;;;;5043298;28;20805;-78
2021/11/13 04:08:42;;;;;;;7.97;6.77;;;7.40;99.90;;;;;;5043162;28;20461;-80
2021/11/13 04:11:11;;;;;;;10.80;8.10;;;7.30;99.90;;;;;;5042531;28;21052;-79
2021/11/13 04:13:40;;;;;;;8.83;6.50;;;7.40;99.90;;;;;;5045054;28;20468;-80
2021/11/13 04:16:08;;;;;;;11.37;8.13;;;7.50;99.90;;;;;;5030647;28;20464;-79
2021/11/13 04:18:36;;;;;;;11.03;8.43;;;7.40;99.90;;;;;;5042438;28;20464;-80
2021/11/13 04:21:05;;;;;;;10.90;7.03;;;7.40;99.90;;;;;;5041541;28;20865;-78
2021/11/13 04:23:37;;;;;;;7.97;6.97;;;7.40;99.90;;;;;;5045737;28;20714;-81
2021/11/13 04:26:05;;;;;;;12.90;8.23;;;7.10;99.90;;;;;;5040770;28;20472;-80
2021/11/13 04:28:34;;;;;;;11.00;7.33;;;7.10;99.90;;;;;;5039162;28;20505;-80
2021/11/13 04:31:02;;;;;;;12.30;7.70;;;7.20;99.90;;;;;;5024472;28;20484;-81
2021/11/13 04:33:33;;;;;;;9.97;7.80;;;7.20;99.90;;;;;;5040415;28;20482;-79
2021/11/13 04:36:06;;;;;;;8.30;7.50;;;7.30;99.90;;;;;;5038963;28;20471;-80
2021/11/13 04:38:36;;;;;;;8.87;7.60;;;7.60;99.90;;;;;;5044443;28;20942;-80
2021/11/13 04:41:06;;;;;;;8.43;7.53;;;7.40;99.90;;;;;;5043399;28;21073;-79
2021/11/13 04:43:35;;;;;;;9.20;7.43;;;7.40;99.90;;;;;;5033989;28;20448;-79
2021/11/13 04:46:04;;;;;;;8.97;7.37;;;7.30;99.90;;;;;;5033758;28;20452;-80
2021/11/13 04:48:33;;;;;;;7.47;6.53;;;7.40;99.90;;;;;;5046184;28;20471;-83
2021/11/13 04:51:01;;;;;;;6.80;5.60;;;7.40;99.90;;;;;;5043634;28;20477;-80
2021/11/13 04:53:30;;;;;;;7.67;5.50;;;7.40;99.90;;;;;;5046039;28;20475;-79
2021/11/13 04:55:59;;;;;;;12.30;6.63;;;7.40;99.90;;;;;;5039322;28;20455;-80
2021/11/13 04:58:28;;;;;;;8.63;5.63;;;7.20;99.90;;;;;;5038976;28;20464;-79
2021/11/13 05:00:56;;;;;;;10.00;6.17;;;7.20;99.90;;;;;;5029766;28;20494;-79
2021/11/13 05:03:25;;;;;;;7.37;6.00;;;7.40;99.90;;;;;;5053557;28;20456;-80
2021/11/13 05:05:53;;;;;;;6.60;5.20;;;7.60;99.90;;;;;;5042557;28;20457;-80
2021/11/13 05:08:21;;;;;;;6.57;5.47;;;7.70;99.90;;;;;;5040674;28;20460;-79
2021/11/13 05:10:50;;;;;;;8.90;6.17;;;7.70;99.90;;;;;;5029501;28;20573;-79
2021/11/13 05:13:20;;;;;;;10.67;7.03;;;7.80;99.90;;;;;;5040314;28;21002;-78
2021/11/13 05:15:49;;;;;;;7.53;6.50;;;7.90;99.90;;;;;;5045943;28;20448;-78
2021/11/13 05:18:17;;;;;;;6.93;5.73;;;7.90;99.90;;;;;;5042439;28;20459;-78
2021/11/13 05:20:45;;;;;;;9.50;6.67;;;7.90;99.90;;;;;;5043993;28;20844;-79
2021/11/13 05:23:14;;;;;;;9.93;6.90;;;7.90;99.90;;;;;;5039538;28;20461;-79
2021/11/13 05:25:42;;;;;;;9.20;6.67;;;7.90;99.90;;;;;;5039802;28;20460;-77
2021/11/13 05:28:11;;;;;;;11.47;6.70;;;7.90;99.90;;;;;;5041148;28;20443;-79
2021/11/13 05:30:41;;;;;;;9.67;7.23;;;7.90;99.90;;;;;;5025227;28;20591;-77
2021/11/13 05:33:09;;;;;;;11.83;7.47;;;7.90;99.90;;;;;;5044034;28;20448;-78
2021/11/13 05:35:37;;;;;;;10.20;6.97;;;7.70;99.90;;;;;;5037666;28;20786;-76
2021/11/13 05:38:06;;;;;;;8.07;7.17;;;7.60;99.90;;;;;;5043914;28;21021;-80
2021/11/13 05:40:34;;;;;;;13.03;9.27;;;7.70;99.90;;;;;;5039078;28;20765;-79
2021/11/13 05:43:02;;;;;;;10.43;7.10;;;7.70;99.90;;;;;;5046174;28;20831;-82
2021/11/13 05:45:31;;;;;;;8.73;6.40;;;7.70;99.90;;;;;;5046048;28;20968;-82
2021/11/13 05:48:00;;;;;;;7.13;6.17;;;7.80;99.90;;;;;;5038911;28;20557;-78
2021/11/13 05:50:29;;;;;;;8.93;6.17;;;7.80;99.90;;;;;;5046753;28;20486;-81
2021/11/13 05:52:57;;;;;;;7.13;6.53;;;7.80;99.90;;;;;;5040244;28;20484;-78
2021/11/13 05:55:25;;;;;;;16.30;7.33;;;7.80;99.90;;;;;;5040751;28;21019;-79
2021/11/13 05:57:56;;;;;;;8.43;6.50;;;7.80;99.90;;;;;;5047504;28;20978;-79
2021/11/13 06:00:27;;;;;;;8.40;6.93;;;7.80;99.90;;;;;;5024575;28;20913;-80
2021/11/13 06:02:56;;;;;;;11.63;6.83;;;7.80;99.90;;;;;;5037029;28;20451;-82
2021/11/13 06:05:25;;;;;;;11.43;6.87;;;7.60;99.90;;;;;;5046242;28;20455;-80
2021/11/13 06:07:54;;;;;;;10.63;7.20;;;7.60;99.90;;;;;;5040642;28;20460;-79
2021/11/13 06:10:22;;;;;;;10.60;6.33;;;7.50;99.90;;;;;;5042967;28;20487;-78
2021/11/13 06:12:51;;;;;;;9.10;6.77;;;7.50;99.90;;;;;;5042313;28;20456;-80
2021/11/13 06:15:19;;;;;;;9.23;7.03;;;7.70;99.90;;;;;;5032225;28;20637;-78
2021/11/13 06:17:47;;;;;;;5.90;5.30;;;7.90;99.90;;;;;;5059119;28;20448;-80
2021/11/13 06:20:16;;;;;;;6.20;5.07;;;7.80;99.90;;;;;;5038921;28;20578;-79
2021/11/13 06:22:46;;;;;;;5.67;4.47;;;7.80;99.90;;;;;;5042652;28;21055;-79
2021/11/13 06:25:15;;;;;;;7.27;5.20;;;7.90;99.90;;;;;;5038043;28;21009;-79
2021/11/13 06:27:44;;;;;;;6.87;5.83;;;7.80;99.90;;;;;;5041546;28;20466;-79
2021/11/13 06:30:14;;;;;;;5.33;3.50;;;8.00;99.90;;;;;;5028541;28;20576;-79
2021/11/13 06:32:44;;;;;;;7.10;4.50;;;8.10;99.90;;;;;;5044291;28;21219;-79
2021/11/13 06:35:13;;;;;;;5.20;3.40;;;8.00;99.90;;;;;;5036827;28;20901;-78
2021/11/13 06:37:42;;;;;;;3.33;3.03;;;8.00;99.90;;;;;;5040676;28;20963;-80
2021/11/13 06:40:14;;;;;;;4.60;3.40;;;8.10;99.90;;;;;;5046447;28;21035;-78
2021/11/13 06:42:43;;;;;;;4.90;3.33;;;8.20;99.90;;;;;;5045869;28;20448;-79
2021/11/13 06:45:13;;;;;;;5.30;4.03;;;8.20;99.90;;;;;;5025890;28;20819;-79
2021/11/13 06:47:42;;;;;;;9.90;3.40;;;8.40;99.90;;;;;;5042034;28;20807;-80
2021/11/13 06:50:12;;;;;;;5.70;3.07;;;8.40;99.90;;;;;;5039237;28;20469;-78
2021/11/13 06:52:40;;;;;;;4.23;3.00;;;8.30;99.90;;;;;;5042746;28;20457;-78
2021/11/13 06:55:09;;;;;;;3.27;2.97;;;8.40;99.90;;;;;;5044705;28;20473;-79
2021/11/13 06:57:40;;;;;;;5.60;3.13;;;8.10;99.90;;;;;;5046139;28;20458;-80
2021/11/13 07:00:11;;;;;;;6.30;3.97;;;8.30;99.90;;;;;;5033647;28;20472;-82
2021/11/13 07:02:39;;;;;;;4.40;3.30;;;8.20;99.90;;;;;;5036236;28;20455;-79
2021/11/13 07:05:09;;;;;;;3.90;3.57;;;8.20;99.90;;;;;;5045396;28;20449;-78
2021/11/13 07:07:38;;;;;;;5.63;3.77;;;8.20;99.90;;;;;;5034338;28;20445;-80
2021/11/13 07:10:10;;;;;;;6.10;3.23;;;8.40;99.90;;;;;;5043778;28;20559;-79
2021/11/13 07:12:40;;;;;;;5.27;3.77;;;8.30;99.90;;;;;;5040311;28;20853;-79
2021/11/13 07:15:09;;;;;;;4.37;3.60;;;8.20;99.90;;;;;;5029701;28;20468;-79
2021/11/13 07:17:37;;;;;;;6.63;4.03;;;8.30;99.90;;;;;;5037736;28;20467;-78
2021/11/13 07:20:07;;;;;;;6.93;3.93;;;8.30;99.90;;;;;;5043773;28;20475;-78
2021/11/13 07:22:35;;;;;;;4.40;4.00;;;8.40;99.90;;;;;;5038262;28;20450;-78
2021/11/13 07:25:04;;;;;;;4.50;3.17;;;8.50;99.90;;;;;;5037219;28;20446;-79
2021/11/13 07:27:32;;;;;;;4.07;3.60;;;8.60;99.90;;;;;;5041239;28;21211;-80
2021/11/13 07:30:03;;;;;;;4.50;3.93;;;8.70;99.90;;;;;;5042300;28;20515;-78
2021/11/13 07:32:33;;;;;;;4.80;3.00;;;8.70;99.90;;;;;;5044829;28;20456;-79
2021/11/13 07:35:02;;;;;;;6.20;3.40;;;8.80;99.90;;;;;;5038501;28;20478;-77
2021/11/13 07:37:30;;;;;;;4.40;3.43;;;8.90;99.90;;;;;;5041586;28;20949;-79
2021/11/13 07:39:58;;;;;;;5.50;3.90;;;8.90;99.90;;;;;;5040772;28;20468;-80
2021/11/13 07:42:26;;;;;;;3.47;3.07;;;8.80;99.90;;;;;;5034449;28;20453;-80
2021/11/13 07:44:55;;;;;;;4.20;3.10;;;8.80;99.90;;;;;;5030478;28;20459;-79
2021/11/13 07:47:24;;;;;;;4.37;3.87;;;8.80;99.90;;;;;;5046942;28;20463;-79
2021/11/13 07:49:52;;;;;;;5.53;2.90;;;8.60;99.90;;;;;;5046892;28;21010;-80
2021/11/13 07:52:21;;;;;;;5.87;3.47;;;8.60;99.90;;;;;;5042488;28;20882;-79
2021/11/13 07:54:54;;;;;;;4.57;3.40;;;8.50;99.90;;;;;;5040782;28;20563;-79
2021/11/13 07:57:22;;;;;;;3.13;2.60;;;8.40;99.90;;;;;;5046316;28;20449;-78
2021/11/13 07:59:50;;;;;;;3.90;3.10;;;8.40;99.90;;;;;;5040346;28;20705;-79
2021/11/13 08:02:19;;;;;;;4.93;3.53;;;8.40;99.90;;;;;;5036542;28;20530;-79
2021/11/13 08:04:50;;;;;;;4.30;3.00;;;8.50;99.90;;;;;;5039509;28;20461;-80
2021/11/13 08:07:19;;;;;;;4.50;3.87;;;8.70;99.90;;;;;;5035657;28;20849;-79
2021/11/13 08:09:51;;;;;;;4.43;3.20;;;8.70;99.90;;;;;;5044890;28;20478;-79
2021/11/13 08:12:19;;;;;;;6.37;4.03;;;8.80;99.90;;;;;;5040574;28;20464;-79
2021/11/13 08:14:47;;;;;;;4.70;2.80;;;8.90;99.90;;;;;;5039802;28;20486;-79
2021/11/13 08:17:15;;;;;;;3.80;3.40;;;8.90;99.90;;;;;;5040556;28;20517;-78
2021/11/13 08:19:44;;;;;;;5.67;3.40;;;9.00;99.90;;;;;;5044360;28;20445;-78
2021/11/13 08:22:13;;;;;;;4.47;3.00;;;9.00;99.90;;;;;;5042557;28;20755;-79
2021/11/13 08:24:42;;;;;;;8.20;3.37;;;8.90;99.90;;;;;;5049447;28;20454;-76
2021/11/13 08:27:12;;;;;;;4.30;3.40;;;8.90;99.90;;;;;;5041706;28;20552;-77
2021/11/13 08:29:40;;;;;;;4.13;3.70;;;8.90;99.90;;;;;;5040920;28;20244;-79
2021/11/13 08:32:09;;;;;;;4.83;2.80;;;9.00;99.90;;;;;;5046721;28;20822;-82
2021/11/13 08:34:37;;;;;;;3.50;3.20;;;8.70;99.90;;;;;;5039988;28;20532;-78
2021/11/13 08:37:06;;;;;;;2.47;2.10;;;8.60;99.90;;;;;;5062770;28;20507;-79
2021/11/13 08:39:36;;;;;;;2.40;2.20;;;8.80;99.90;;;;;;5043887;28;20464;-77
2021/11/13 08:42:09;;;;;;;2.90;2.13;;;8.90;99.90;;;;;;5041517;28;20493;-80
2021/11/13 08:44:37;;;;;;;2.70;2.20;;;8.90;99.90;;;;;;5042534;28;20460;-81
2021/11/13 08:47:08;;;;;;;2.77;2.20;;;8.70;99.90;;;;;;5039680;28;20490;-79
2021/11/13 08:49:37;;;;;;;2.37;2.03;;;8.80;99.90;;;;;;5043625;28;20460;-79
2021/11/13 08:52:06;;;;;;;3.20;2.37;;;9.00;99.90;;;;;;5042604;28;20474;-78
2021/11/13 08:54:36;;;;;;;4.60;2.77;;;9.10;99.90;;;;;;5042693;28;20547;-78
2021/11/13 08:57:06;;;;;;;5.30;2.67;;;9.20;99.90;;;;;;5031204;28;20561;-78
2021/11/13 08:59:35;;;;;;;5.37;4.80;;;9.40;99.90;;;;;;5043253;28;20531;-78
2021/11/13 09:02:11;;;;;;;5.27;3.70;;;9.50;99.90;;;;;;5043079;28;20467;-78
2021/11/13 09:04:41;;;;;;;4.07;3.77;;;9.60;99.90;;;;;;5043196;28;20462;-78
2021/11/13 09:07:10;;;;;;;6.97;3.93;;;9.70;99.90;;;;;;5038504;28;20481;-78
2021/11/13 09:09:40;;;;;;;3.53;3.23;;;9.80;99.90;;;;;;5044901;28;20495;-78
2021/11/13 09:12:13;;;;;;;4.33;3.43;;;9.90;99.90;;;;;;5046145;28;20472;-77
2021/11/13 09:14:41;;;;;;;2.90;2.10;;;9.80;99.90;;;;;;5039837;28;20454;-78
2021/11/13 09:17:10;;;;;;;3.00;2.70;;;9.60;99.90;;;;;;5043263;28;20501;-77
2021/11/13 09:19:39;;;;;;;4.30;2.37;;;9.60;99.90;;;;;;5046725;28;20801;-78
2021/11/13 09:22:07;;;;;;;4.43;2.07;;;9.70;99.90;;;;;;5041264;28;20458;-77
2021/11/13 09:24:35;;;;;;;2.80;2.20;;;9.80;99.90;;;;;;5043556;28;20926;-77
2021/11/13 09:27:06;;;;;;;1.80;1.53;;;9.80;99.90;;;;;;5034483;28;20457;-77
2021/11/13 09:29:35;;;;;;;2.00;1.30;;;10.00;99.90;;;;;;5037677;28;20456;-77
2021/11/13 09:32:04;;;;;;;3.50;1.50;;;10.30;99.90;;;;;;5043423;28;20466;-78
2021/11/13 09:34:33;;;;;;;3.43;1.60;;;10.50;99.90;;;;;;5042785;28;20494;-77
2021/11/13 09:37:01;;;;;;;3.30;2.00;;;10.60;99.90;;;;;;5041973;28;20999;-78
2021/11/13 09:39:29;;;;;;;1.97;1.80;;;10.80;99.90;;;;;;5033900;28;20451;-78
2021/11/13 09:42:01;;;;;;;2.50;2.17;;;11.00;99.90;;;;;;5047244;28;20470;-78
2021/11/13 09:44:32;;;;;;;2.33;2.13;;;11.10;99.90;;;;;;5044222;28;20531;-78
2021/11/13 09:47:03;;;;;;;4.23;1.63;;;11.10;99.90;;;;;;5052642;28;20466;-78
2021/11/13 09:49:32;;;;;;;2.47;1.83;;;11.20;99.90;;;;;;5046183;28;20853;-78
2021/11/13 09:52:01;;;;;;;4.80;2.33;;;11.30;99.90;;;;;;5038141;28;20450;-77
2021/11/13 09:54:32;;;;;;;5.70;2.40;;;11.30;99.90;;;;;;5030332;28;20554;-77
2021/11/13 09:57:01;;;;;;;7.50;4.97;;;11.20;99.90;;;;;;5040262;28;20599;-79
2021/11/13 09:59:30;;;;;;;2.87;2.10;;;11.50;99.90;;;;;;5039945;28;20455;-78
2021/11/13 10:01:59;;;;;;;6.87;2.43;;;11.50;99.90;;;;;;5036373;28;21061;-79
2021/11/13 10:04:33;;;;;;;3.63;2.43;;;11.50;99.90;;;;;;5034857;28;20614;-79
2021/11/13 10:07:02;;;;;;;2.67;2.47;;;11.50;99.90;;;;;;5037651;28;20553;-80
2021/11/13 10:09:31;;;;;;;2.03;1.80;;;11.50;99.90;;;;;;5038474;28;22599;-83
2021/11/13 10:11:59;;;;;;;4.00;2.08;;;11.50;99.90;;;;;;5041560;28;20449;-79
2021/11/13 10:14:37;;;;;;;3.30;2.70;;;11.60;99.90;;;;;;5045651;28;20477;-81
2021/11/13 10:17:18;;;;;;;5.47;2.20;;;11.60;99.90;;;;;;5036589;28;20826;-82
2021/11/13 10:19:47;;;;;;;4.47;2.50;;;11.50;99.90;;;;;;5045840;28;20471;-80
2021/11/13 10:22:16;;;;;;;7.30;2.83;;;11.50;99.90;;;;;;5041756;28;20684;-83
2021/11/13 10:24:47;;;;;;;5.35;3.13;;;11.30;99.90;;;;;;5034385;28;21058;-77
2021/11/13 10:27:15;;;;;;;4.60;2.50;;;11.40;99.90;;;;;;5034851;28;20485;-75
2021/11/13 10:29:47;;;;;;;2.60;1.93;;;11.60;99.90;;;;;;5061727;28;20468;-75
2021/11/13 10:32:18;;;;;;;3.27;2.20;;;11.70;99.90;;;;;;5047660;28;20448;-75
2021/11/13 10:34:51;;;;;;;2.70;1.63;;;11.80;99.90;;;;;;5042768;28;20502;-76
2021/11/13 10:37:23;;;;;;;2.70;2.13;;;11.90;99.90;;;;;;5046899;28;21009;-73
2021/11/13 10:39:58;;;;;;;2.00;1.80;;;12.00;99.90;;;;;;5035156;28;20516;-75
2021/11/13 10:42:26;;;;;;;2.80;1.70;;;12.10;99.90;;;;;;5035700;28;20726;-76
2021/11/13 10:44:58;;;;;;;1.80;1.70;;;12.20;99.90;;;;;;5039684;28;20812;-81
2021/11/13 10:47:31;;;;;;;3.47;1.40;;;12.20;99.90;;;;;;5034902;28;20452;-83
2021/11/13 10:50:14;;;;;;;2.43;2.03;;;12.10;99.90;;;;;;5038699;28;20574;-79
2021/11/13 10:52:42;;;;;;;3.43;2.17;;;11.90;99.90;;;;;;5037537;28;20455;-81
2021/11/13 10:55:18;;;;;;;2.30;1.97;;;11.60;99.90;;;;;;5030866;28;20457;-79
2021/11/13 10:58:28;;;;;;;3.53;2.53;;;11.70;99.90;;;;;;5034028;28;20833;-80
2021/11/13 11:00:59;;;;;;;2.83;2.03;;;11.50;99.90;;;;;;5037672;28;20474;-81
2021/11/13 11:03:31;;;;;;;4.67;2.63;;;11.60;99.90;;;;;;5031060;28;20447;-81
2021/11/13 11:06:00;;;;;;;2.70;1.87;;;11.70;99.90;;;;;;5040149;28;20467;-80
2021/11/13 11:08:29;;;;;;;3.10;1.73;;;11.70;99.90;;;;;;5031183;28;20454;-80
2021/11/13 11:10:58;;;;;;;2.93;2.47;;;11.90;99.90;;;;;;5039090;28;20815;-80
2021/11/13 11:13:43;;;;;;;2.13;1.90;;;11.70;99.90;;;;;;5038324;28;20449;-80
2021/11/13 11:16:24;;;;;;;3.03;2.03;;;11.60;99.90;;;;;;5042930;28;20478;-81
2021/11/13 11:18:54;;;;;;;2.60;1.60;;;11.50;99.90;;;;;;5039195;28;20454;-81
2021/11/13 11:21:49;;;;;;;2.70;2.50;;;11.70;99.90;;;;;;5041902;28;20475;-80
2021/11/13 11:24:23;;;;;;;2.47;2.27;;;11.80;99.90;;;;;;5045123;28;20452;-81
2021/11/13 11:27:01;;;;;;;3.53;2.00;;;11.70;99.90;;;;;;5047809;28;21010;-80
2021/11/13 11:29:32;;;;;;;3.97;2.33;;;11.70;99.90;;;;;;5034206;28;20944;-81
2021/11/13 11:32:04;;;;;;;3.10;1.93;;;11.80;99.90;;;;;;5047076;28;20452;-81
2021/11/13 11:34:35;;;;;;;3.10;2.00;;;11.80;99.90;;;;;;5032237;28;20475;-81
2021/11/13 11:37:11;;;;;;;3.07;2.30;;;11.70;99.90;;;;;;5044209;28;20487;-80
2021/11/13 11:39:41;;;;;;;2.93;1.93;;;11.70;99.90;;;;;;5034839;28;20550;-81
2021/11/13 11:42:11;;;;;;;3.83;2.10;;;11.70;99.90;;;;;;5038443;28;20525;-82
2021/11/13 11:44:41;;;;;;;4.73;2.50;;;11.60;99.90;;;;;;5038806;28;20462;-80
2021/11/13 11:47:14;;;;;;;3.03;1.93;;;11.50;99.90;;;;;;5041923;28;20486;-81
2021/11/13 11:49:47;;;;;;;2.40;2.07;;;11.60;99.90;;;;;;5041260;28;20814;-81
2021/11/13 11:52:19;;;;;;;2.37;2.00;;;11.50;99.90;;;;;;5047053;28;20469;-81
2021/11/13 11:54:49;;;;;;;2.67;1.87;;;11.30;99.90;;;;;;5034081;28;20458;-82
2021/11/13 11:57:18;;;;;;;3.72;2.35;;;11.30;99.90;;;;;;5027184;28;20427;-81
2021/11/13 11:59:49;;;;;;;1.67;1.50;;;11.30;99.90;;;;;;5038087;28;20695;-81
2021/11/13 12:02:20;;;;;;;3.27;2.30;;;11.40;99.90;;;;;;5030841;28;21169;-80
2021/11/13 12:04:50;;;;;;;2.80;1.90;;;11.60;99.90;;;;;;5029663;28;20454;-81
2021/11/13 12:07:29;;;;;;;2.83;1.83;;;11.60;99.90;;;;;;5038929;28;20435;-81
2021/11/13 12:10:01;;;;;;;2.60;2.10;;;11.70;99.90;;;;;;5043878;28;20499;-82
2021/11/13 12:12:30;;;;;;;3.97;2.57;;;11.70;99.90;;;;;;5047994;28;20457;-83
2021/11/13 12:15:21;;;;;;;3.47;2.23;;;11.70;99.90;;;;;;5043167;28;20562;-81
2021/11/13 12:17:53;;;;;;;2.17;2.07;;;11.80;99.90;;;;;;5045460;28;20471;-83
2021/11/13 12:20:36;;;;;;;3.10;2.70;;;11.80;99.90;;;;;;5047177;28;20502;-80
2021/11/13 12:23:13;;;;;;;2.93;2.20;;;11.70;99.90;;;;;;5039446;28;20482;-82
2021/11/13 12:25:56;;;;;;;2.90;1.73;;;11.70;99.90;;;;;;5041096;28;21097;-82
2021/11/13 12:28:29;;;;;;;2.83;2.20;;;11.80;99.90;;;;;;5036789;28;20465;-82
2021/11/13 12:31:09;;;;;;;2.27;1.93;;;11.70;99.90;;;;;;5038555;28;20479;-84
2021/11/13 12:34:02;;;;;;;4.90;2.80;;;11.70;99.90;;;;;;5037113;28;20466;-80
2021/11/13 12:36:35;;;;;;;5.30;2.80;;;11.50;99.90;;;;;;5037579;28;20447;-82
2021/11/13 12:39:11;;;;;;;2.70;2.00;;;11.40;99.90;;;;;;5041498;28;20479;-82
2021/11/13 12:41:48;;;;;;;3.53;2.27;;;11.30;99.90;;;;;;5041082;28;20504;-82
2021/11/13 12:44:22;;;;;;;3.70;3.10;;;11.60;99.90;;;;;;5046764;28;20468;-81
2021/11/13 12:46:52;;;;;;;3.33;2.40;;;11.50;99.90;;;;;;5047167;28;20474;-82
2021/11/13 12:49:46;;;;;;;3.30;3.00;;;11.70;99.90;;;;;;5034287;28;20461;-82
2021/11/13 12:52:33;;;;;;;3.10;2.23;;;11.60;99.90;;;;;;5039342;28;20467;-81
2021/11/13 12:55:12;;;;;;;2.90;2.50;;;11.80;99.90;;;;;;5030822;28;20459;-80
2021/11/13 12:57:42;;;;;;;3.30;2.13;;;11.90;99.90;;;;;;5042191;28;20491;-80
2021/11/13 13:00:22;;;;;;;3.23;2.90;;;11.90;99.90;;;;;;5044128;28;20479;-81
2021/11/13 13:03:04;;;;;;;2.37;2.00;;;12.00;99.90;;;;;;5036671;28;20870;-81
2021/11/13 13:05:34;;;;;;;2.63;2.00;;;12.00;99.90;;;;;;5040459;28;20455;-82
2021/11/13 13:08:02;;;;;;;4.00;1.73;;;12.00;99.90;;;;;;5043185;28;20541;-80
2021/11/13 13:10:32;;;;;;;4.00;2.50;;;11.80;1.00;;;;;;5041633;28;20488;-83